Time;durP1;ratioP1;P1;durP2;ratioP2;P2;SDS_P1;SDS_P2;PMS_P1;PMS_P2;Temp;Humidity;BMP_temperature;BMP_pressure;BME280_temperature;BME280_humidity;BME280_pressure;Samples;Min_cycle;Max_cycle;Signal;HPM_P1;HPM_P2
2022/12/12 15:09:18;;;;;;;9.30;3.57;;;1.70;99.90;;;;;;4878895;23;20246;-70
2022/12/12 15:11:45;;;;;;;8.97;4.00;;;1.50;99.90;;;;;;4880727;29;20243;-71
2022/12/12 15:14:19;;;;;;;9.53;3.47;;;1.50;99.90;;;;;;4881236;29;20215;-71
2022/12/12 15:16:50;;;;;;;5.73;3.00;;;1.50;99.90;;;;;;4862152;29;20268;-70
2022/12/12 15:19:23;;;;;;;8.10;3.93;;;1.50;99.90;;;;;;4862194;29;20578;-71
2022/12/12 15:21:50;;;;;;;15.60;4.40;;;1.30;99.90;;;;;;4861865;29;20235;-71
2022/12/12 15:24:21;;;;;;;8.23;4.47;;;1.30;99.90;;;;;;4861725;29;20247;-71
2022/12/12 15:26:51;;;;;;;13.97;3.70;;;1.40;99.90;;;;;;4862154;29;20223;-70
2022/12/12 15:29:21;;;;;;;9.40;3.70;;;1.40;99.90;;;;;;4861947;29;20212;-70
2022/12/12 15:31:55;;;;;;;14.53;5.00;;;1.50;99.90;;;;;;4862014;29;20307;-70
2022/12/12 15:34:30;;;;;;;12.27;4.77;;;1.50;99.90;;;;;;4861901;29;20219;-70
2022/12/12 15:37:18;;;;;;;16.10;4.10;;;1.40;99.90;;;;;;4861882;29;20230;-70
2022/12/12 15:39:56;;;;;;;9.90;3.87;;;1.30;99.90;;;;;;4861863;29;20216;-70
2022/12/12 15:42:23;;;;;;;12.90;3.93;;;1.30;99.90;;;;;;4860936;29;20356;-70
2022/12/12 15:44:51;;;;;;;7.03;3.33;;;1.30;99.90;;;;;;4861054;29;20254;-70
2022/12/12 15:47:20;;;;;;;10.37;3.43;;;1.20;99.90;;;;;;4861253;29;20235;-70
2022/12/12 15:49:47;;;;;;;9.67;3.97;;;1.20;99.90;;;;;;4861509;29;20243;-70
2022/12/12 15:52:21;;;;;;;6.97;3.30;;;1.10;99.90;;;;;;4861383;29;20265;-70
2022/12/12 15:54:52;;;;;;;10.27;3.60;;;1.20;99.90;;;;;;4861112;29;20239;-70
2022/12/12 15:57:22;;;;;;;6.77;3.33;;;1.10;99.90;;;;;;4860998;29;20215;-70
2022/12/12 15:59:55;;;;;;;7.37;3.73;;;1.00;99.90;;;;;;4861044;29;20216;-70
2022/12/12 16:02:24;;;;;;;10.87;3.87;;;1.00;99.90;;;;;;4861269;29;20216;-70
2022/12/12 16:05:03;;;;;;;6.93;3.27;;;1.00;99.90;;;;;;4860939;29;20247;-70
2022/12/12 16:07:35;;;;;;;9.40;3.80;;;0.80;99.90;;;;;;4860980;29;20237;-70
2022/12/12 16:10:20;;;;;;;7.27;3.67;;;0.80;99.90;;;;;;4860763;29;20292;-69
2022/12/12 16:12:59;;;;;;;7.53;3.27;;;0.70;99.90;;;;;;4861124;29;20219;-70
2022/12/12 16:15:32;;;;;;;8.07;3.07;;;0.60;99.90;;;;;;4860976;29;20345;-70
2022/12/12 16:18:01;;;;;;;5.00;2.63;;;0.50;99.90;;;;;;4860860;29;20211;-70
2022/12/12 16:20:29;;;;;;;9.20;3.43;;;0.40;99.90;;;;;;4860566;29;20212;-70
2022/12/12 16:22:55;;;;;;;9.87;3.20;;;0.30;99.90;;;;;;4860475;29;20307;-70
2022/12/12 16:25:26;;;;;;;13.17;2.80;;;0.30;99.90;;;;;;4860776;29;20254;-70
2022/12/12 16:27:57;;;;;;;7.80;3.73;;;0.30;99.90;;;;;;4860975;29;20212;-70
2022/12/12 16:30:26;;;;;;;7.90;3.13;;;0.30;99.90;;;;;;4860960;29;20223;-71
2022/12/12 16:32:53;;;;;;;6.93;3.17;;;0.30;99.90;;;;;;4860780;29;20211;-69
2022/12/12 16:35:22;;;;;;;10.83;3.83;;;0.40;99.90;;;;;;4860963;29;20244;-73
2022/12/12 16:37:50;;;;;;;7.53;3.23;;;0.30;99.90;;;;;;4860838;29;20212;-70
2022/12/12 16:40:19;;;;;;;9.90;3.83;;;0.20;99.90;;;;;;4860422;29;20208;-72
2022/12/12 16:42:52;;;;;;;4.97;2.37;;;0.20;99.90;;;;;;4856105;29;20212;-72
2022/12/12 16:45:19;;;;;;;5.73;2.73;;;0.10;99.90;;;;;;4853429;29;20240;-74
2022/12/12 16:47:46;;;;;;;7.20;3.57;;;0.10;99.90;;;;;;4852569;29;20672;-72
2022/12/12 16:50:13;;;;;;;9.03;3.23;;;0.10;99.90;;;;;;4840466;29;20212;-71
2022/12/12 16:52:40;;;;;;;14.43;3.43;;;0.00;99.90;;;;;;4852499;29;20212;-72
2022/12/12 16:55:16;;;;;;;10.37;3.43;;;-0.10;99.90;;;;;;4859034;29;20243;-74
2022/12/12 16:57:43;;;;;;;13.70;3.77;;;-0.10;99.90;;;;;;4860428;29;20221;-74
2022/12/12 17:00:13;;;;;;;9.97;3.97;;;-0.10;99.90;;;;;;4868865;29;20299;-74
2022/12/12 17:02:40;;;;;;;10.43;3.33;;;-0.10;99.90;;;;;;4860484;29;20716;-73
2022/12/12 17:05:11;;;;;;;5.27;3.30;;;-0.20;99.90;;;;;;4848531;29;20236;-73
2022/12/12 17:07:38;;;;;;;8.53;4.13;;;-0.20;99.90;;;;;;4860299;29;20246;-73
2022/12/12 17:10:06;;;;;;;8.07;4.07;;;-0.30;99.90;;;;;;4853345;29;20226;-71
2022/12/12 17:12:33;;;;;;;14.77;4.43;;;-0.30;99.90;;;;;;4858186;29;20222;-73
2022/12/12 17:14:59;;;;;;;10.00;4.70;;;-0.30;99.90;;;;;;4858901;29;20232;-73
2022/12/12 17:17:28;;;;;;;9.30;3.90;;;-0.30;99.90;;;;;;4840853;29;20205;-74
2022/12/12 17:19:54;;;;;;;9.63;4.33;;;-0.30;99.90;;;;;;4840118;29;20217;-74
2022/12/12 17:22:21;;;;;;;13.33;5.03;;;-0.30;99.90;;;;;;4853414;29;20222;-73
2022/12/12 17:24:48;;;;;;;12.93;5.00;;;-0.40;99.90;;;;;;4856102;29;20254;-74
2022/12/12 17:27:15;;;;;;;11.43;4.80;;;-0.40;99.90;;;;;;4857846;29;20268;-74
2022/12/12 17:29:42;;;;;;;12.63;4.10;;;-0.40;99.90;;;;;;4859118;29;20216;-73
2022/12/12 17:32:08;;;;;;;8.47;4.27;;;-0.40;99.90;;;;;;4858594;29;20223;-72
2022/12/12 17:34:37;;;;;;;11.00;5.37;;;-0.30;99.90;;;;;;4856804;29;20259;-75
2022/12/12 17:37:04;;;;;;;11.00;5.00;;;-0.40;99.90;;;;;;4858599;29;20216;-74
2022/12/12 17:39:31;;;;;;;12.70;5.33;;;-0.50;99.90;;;;;;4856821;29;20730;-73
2022/12/12 17:41:58;;;;;;;14.03;5.27;;;-0.50;99.90;;;;;;4857892;29;20214;-74
2022/12/12 17:44:25;;;;;;;9.63;5.00;;;-0.50;99.90;;;;;;4858762;29;20292;-73
2022/12/12 17:46:52;;;;;;;15.77;5.90;;;-0.50;99.90;;;;;;4861030;29;20671;-76
2022/12/12 17:49:19;;;;;;;11.67;5.83;;;-0.60;99.90;;;;;;4861614;29;20219;-72
2022/12/12 17:51:47;;;;;;;15.40;5.77;;;-0.60;99.90;;;;;;4859133;29;20219;-74
2022/12/12 17:54:14;;;;;;;13.10;5.37;;;-0.50;99.90;;;;;;4862007;29;20216;-75
2022/12/12 17:56:41;;;;;;;12.03;6.00;;;-0.50;99.90;;;;;;4862015;29;20702;-74
2022/12/12 17:59:08;;;;;;;7.40;4.40;;;-0.50;99.90;;;;;;4862591;29;20220;-76
2022/12/12 18:01:35;;;;;;;12.57;5.03;;;-0.50;99.90;;;;;;4861748;29;20664;-73
2022/12/12 18:04:03;;;;;;;12.63;5.70;;;-0.50;99.90;;;;;;4861711;29;20275;-74
2022/12/12 18:06:32;;;;;;;14.47;4.63;;;-0.60;99.90;;;;;;4861852;29;20235;-73
2022/12/12 18:09:00;;;;;;;11.97;5.60;;;-0.70;99.90;;;;;;4861676;29;20691;-71
2022/12/12 18:11:30;;;;;;;13.77;5.43;;;-0.60;99.90;;;;;;4861288;29;20303;-74
2022/12/12 18:13:59;;;;;;;9.13;4.80;;;-0.60;99.90;;;;;;4861771;29;20222;-71
2022/12/12 18:16:27;;;;;;;10.83;5.27;;;-0.70;99.90;;;;;;4862386;29;20238;-74
2022/12/12 18:18:54;;;;;;;12.47;6.13;;;-0.70;99.90;;;;;;4861275;29;20220;-72
2022/12/12 18:21:24;;;;;;;14.63;6.00;;;-0.90;99.90;;;;;;4861665;29;20216;-71
2022/12/12 18:23:51;;;;;;;12.37;5.60;;;-1.00;99.90;;;;;;4861395;29;20583;-73
2022/12/12 18:26:21;;;;;;;13.30;5.10;;;-1.00;99.90;;;;;;4860592;29;20238;-73
2022/12/12 18:28:48;;;;;;;13.83;5.67;;;-0.90;99.90;;;;;;4862308;29;20307;-71
2022/12/12 18:31:15;;;;;;;12.80;5.07;;;-0.90;99.90;;;;;;4862934;29;20208;-72
2022/12/12 18:33:42;;;;;;;9.03;4.80;;;-0.90;99.90;;;;;;4862689;29;20306;-72
2022/12/12 18:36:12;;;;;;;11.30;5.70;;;-0.90;99.90;;;;;;4862612;29;20591;-72
2022/12/12 18:38:39;;;;;;;10.90;6.10;;;-0.90;99.90;;;;;;4862872;29;20230;-72
2022/12/12 18:41:06;;;;;;;14.10;6.80;;;-0.80;99.90;;;;;;4862871;29;20553;-72
2022/12/12 18:43:35;;;;;;;17.60;6.43;;;-0.80;99.90;;;;;;4862565;29;20303;-72
2022/12/12 18:46:04;;;;;;;12.27;5.63;;;-1.00;99.90;;;;;;4862603;29;20297;-72
2022/12/12 18:48:32;;;;;;;13.77;6.07;;;-1.00;99.90;;;;;;4862617;29;20680;-72
2022/12/12 18:51:04;;;;;;;14.80;5.33;;;-1.00;99.90;;;;;;4862824;29;20208;-72
2022/12/12 18:53:31;;;;;;;16.77;6.33;;;-1.00;99.90;;;;;;4862675;29;20342;-72
2022/12/12 18:55:58;;;;;;;14.53;6.03;;;-1.00;99.90;;;;;;4862382;29;20231;-72
2022/12/12 18:58:25;;;;;;;15.00;6.23;;;-1.10;99.90;;;;;;4861385;29;20671;-72
2022/12/12 19:00:53;;;;;;;15.70;6.20;;;-1.10;99.90;;;;;;4862420;29;20352;-72
2022/12/12 19:03:20;;;;;;;11.90;5.53;;;-1.10;99.90;;;;;;4862539;29;20212;-72
2022/12/12 19:05:46;;;;;;;12.83;6.30;;;-1.10;99.90;;;;;;4862059;29;20695;-72
2022/12/12 19:08:13;;;;;;;13.83;5.63;;;-1.20;99.90;;;;;;4861895;29;20216;-72
2022/12/12 19:10:40;;;;;;;11.93;5.50;;;-1.30;99.90;;;;;;4861734;29;20211;-72
2022/12/12 19:13:07;;;;;;;10.60;5.77;;;-1.30;99.90;;;;;;4861744;29;20268;-72
2022/12/12 19:15:34;;;;;;;11.23;4.63;;;-1.30;99.90;;;;;;4858016;29;20242;-73
2022/12/12 19:18:02;;;;;;;12.40;5.67;;;-1.20;99.90;;;;;;4859619;29;20771;-71
2022/12/12 19:20:29;;;;;;;11.33;5.13;;;-1.30;99.90;;;;;;4861520;29;20307;-72
2022/12/12 19:22:56;;;;;;;12.60;5.47;;;-1.30;99.90;;;;;;4861673;29;20208;-72
2022/12/12 19:25:23;;;;;;;13.93;6.23;;;-1.10;99.90;;;;;;4861513;29;20254;-72
2022/12/12 19:27:50;;;;;;;12.50;6.23;;;-1.00;99.90;;;;;;4861447;29;20212;-72
2022/12/12 19:30:17;;;;;;;11.50;5.00;;;-1.00;99.90;;;;;;4860703;29;20563;-72
2022/12/12 19:32:47;;;;;;;11.23;5.07;;;-1.00;99.90;;;;;;4861120;29;20241;-71
2022/12/12 19:35:15;;;;;;;12.50;4.73;;;-1.10;99.90;;;;;;4861308;29;20235;-71
2022/12/12 19:37:42;;;;;;;13.70;4.97;;;-1.00;99.90;;;;;;4861654;29;20223;-72
2022/12/12 19:40:10;;;;;;;12.33;4.37;;;-1.10;99.90;;;;;;4861245;29;20212;-72
2022/12/12 19:42:38;;;;;;;15.57;5.37;;;-1.10;99.90;;;;;;4861123;29;20212;-70
2022/12/12 19:45:06;;;;;;;19.60;5.67;;;-1.00;99.90;;;;;;4861335;29;20240;-72
2022/12/12 19:47:33;;;;;;;12.13;5.70;;;-1.10;99.90;;;;;;4861358;29;20618;-71
2022/12/12 19:50:00;;;;;;;7.67;4.07;;;-1.10;99.90;;;;;;4861133;29;20298;-71
2022/12/12 19:52:28;;;;;;;10.20;4.67;;;-1.10;99.90;;;;;;4861046;29;20672;-72
2022/12/12 19:54:55;;;;;;;11.63;5.07;;;-1.10;99.90;;;;;;4860960;29;20322;-71
2022/12/12 19:57:25;;;;;;;15.33;5.27;;;-1.10;99.90;;;;;;4861130;29;20212;-72
2022/12/12 19:59:52;;;;;;;9.57;3.83;;;-1.20;99.90;;;;;;4861089;29;20219;-72
2022/12/12 20:02:18;;;;;;;11.37;4.67;;;-1.20;99.90;;;;;;4861204;29;20218;-71
2022/12/12 20:04:46;;;;;;;11.57;5.27;;;-1.20;99.90;;;;;;4861018;29;20243;-71
2022/12/12 20:07:12;;;;;;;10.97;4.30;;;-1.20;99.90;;;;;;4860999;29;20238;-71
2022/12/12 20:09:41;;;;;;;14.67;4.97;;;-1.20;99.90;;;;;;4860199;29;20226;-71
2022/12/12 20:12:07;;;;;;;11.53;4.50;;;-1.20;99.90;;;;;;4860569;29;20207;-71
2022/12/12 20:14:35;;;;;;;14.57;5.27;;;-1.20;99.90;;;;;;4860320;29;20726;-71
2022/12/12 20:17:02;;;;;;;8.90;5.00;;;-1.30;99.90;;;;;;4860865;29;20218;-70
2022/12/12 20:19:29;;;;;;;11.30;4.50;;;-1.30;99.90;;;;;;4860523;29;20230;-72
2022/12/12 20:21:56;;;;;;;9.27;4.97;;;-1.30;99.90;;;;;;4860703;29;20240;-71
2022/12/12 20:24:24;;;;;;;8.67;4.70;;;-1.30;99.90;;;;;;4860362;29;20301;-71
2022/12/12 20:26:54;;;;;;;12.30;4.13;;;-1.20;99.90;;;;;;4860636;29;20212;-72
2022/12/12 20:29:21;;;;;;;12.73;4.47;;;-1.30;99.90;;;;;;4860866;29;20298;-71
2022/12/12 20:31:48;;;;;;;14.47;5.23;;;-1.30;99.90;;;;;;4860815;29;20214;-70
2022/12/12 20:34:17;;;;;;;12.47;4.87;;;-1.30;99.90;;;;;;4860926;29;20295;-70
2022/12/12 20:36:44;;;;;;;10.37;5.07;;;-1.40;99.90;;;;;;4860569;29;20220;-71
2022/12/12 20:39:14;;;;;;;11.97;4.87;;;-1.40;99.90;;;;;;4860638;29;20212;-70
2022/12/12 20:41:42;;;;;;;9.73;5.00;;;-1.40;99.90;;;;;;4860475;29;20299;-72
2022/12/12 20:44:12;;;;;;;12.47;3.93;;;-1.50;99.90;;;;;;4860291;29;20582;-71
2022/12/12 20:46:41;;;;;;;11.60;5.00;;;-1.50;99.90;;;;;;4860642;29;20232;-71
2022/12/12 20:49:12;;;;;;;9.97;4.83;;;-1.50;99.90;;;;;;4860496;29;20306;-72
2022/12/12 20:51:39;;;;;;;10.30;4.20;;;-1.50;99.90;;;;;;4860478;29;20212;-73
2022/12/12 20:54:07;;;;;;;17.10;5.27;;;-1.60;99.90;;;;;;4860456;29;20208;-71
2022/12/12 20:56:35;;;;;;;9.00;4.00;;;-1.60;99.90;;;;;;4860136;29;20278;-71
2022/12/12 20:59:04;;;;;;;10.27;5.40;;;-1.60;99.90;;;;;;4860277;29;20631;-71
2022/12/12 21:01:34;;;;;;;10.40;4.17;;;-1.60;99.90;;;;;;4860108;29;20239;-71
2022/12/12 21:04:03;;;;;;;10.83;4.20;;;-1.60;99.90;;;;;;4860460;29;20299;-71
2022/12/12 21:06:31;;;;;;;15.47;5.33;;;-1.60;99.90;;;;;;4887035;23;20234;-72
2022/12/12 21:09:00;;;;;;;10.57;4.60;;;-1.60;99.90;;;;;;4878539;29;20211;-74
2022/12/12 21:11:28;;;;;;;12.00;5.27;;;-1.70;99.90;;;;;;4878163;29;20226;-75
2022/12/12 21:13:55;;;;;;;8.60;4.07;;;-1.70;99.90;;;;;;4878465;29;20214;-74
2022/12/12 21:16:24;;;;;;;13.47;6.13;;;-1.70;99.90;;;;;;4878133;29;20239;-75
2022/12/12 21:18:54;;;;;;;9.50;4.83;;;-1.70;99.90;;;;;;4878562;29;20207;-75
2022/12/12 21:21:21;;;;;;;7.97;4.90;;;-1.70;99.90;;;;;;4880722;29;20679;-75
2022/12/12 21:23:48;;;;;;;13.30;5.33;;;-1.70;99.90;;;;;;4882192;29;20253;-75
2022/12/12 21:26:17;;;;;;;12.10;4.80;;;-1.70;99.90;;;;;;4882294;29;20239;-74
2022/12/12 21:28:45;;;;;;;10.17;4.60;;;-1.80;99.90;;;;;;4882627;29;20207;-75
2022/12/12 21:31:17;;;;;;;10.40;5.37;;;-1.70;99.90;;;;;;4882429;29;20238;-74
2022/12/12 21:33:44;;;;;;;9.00;4.97;;;-1.80;99.90;;;;;;4881862;29;20215;-75
2022/12/12 21:36:15;;;;;;;17.13;5.73;;;-1.80;99.90;;;;;;4882609;29;20720;-73
2022/12/12 21:38:42;;;;;;;8.70;4.23;;;-1.90;99.90;;;;;;4882363;29;20222;-74
2022/12/12 21:41:11;;;;;;;11.90;5.30;;;-1.80;99.90;;;;;;4882542;29;20218;-74
2022/12/12 21:43:38;;;;;;;12.73;6.33;;;-1.90;99.90;;;;;;4882551;29;20218;-74
2022/12/12 21:46:06;;;;;;;12.73;4.27;;;-1.90;99.90;;;;;;4882442;29;20246;-74
2022/12/12 21:48:34;;;;;;;8.90;4.33;;;-1.90;99.90;;;;;;4882144;29;20211;-74
2022/12/12 21:51:01;;;;;;;10.33;4.90;;;-1.80;99.90;;;;;;4882168;29;20218;-75
2022/12/12 21:53:35;;;;;;;11.57;5.13;;;-1.80;99.90;;;;;;4882398;29;20215;-75
2022/12/12 21:56:06;;;;;;;10.17;5.30;;;-1.90;99.90;;;;;;4881852;29;20317;-74
2022/12/12 21:58:33;;;;;;;10.53;4.27;;;-1.90;99.90;;;;;;4881464;29;20667;-74
2022/12/12 22:01:05;;;;;;;7.33;4.37;;;-2.00;99.90;;;;;;4864151;29;20207;-74
2022/12/12 22:03:32;;;;;;;8.70;4.73;;;-2.10;99.90;;;;;;4863736;29;20208;-74
2022/12/12 22:05:59;;;;;;;12.17;4.90;;;-2.10;99.90;;;;;;4863015;29;20250;-74
2022/12/12 22:08:26;;;;;;;7.80;4.33;;;-2.10;99.90;;;;;;4863005;29;20208;-74
2022/12/12 22:10:54;;;;;;;12.67;5.87;;;-2.20;99.90;;;;;;4863447;29;20215;-73
2022/12/12 22:13:21;;;;;;;12.30;4.40;;;-2.20;99.90;;;;;;4863182;29;20676;-72
2022/12/12 22:15:57;;;;;;;8.43;5.17;;;-2.10;99.90;;;;;;4863206;29;20333;-72
2022/12/12 22:18:24;;;;;;;11.17;4.50;;;-2.20;99.90;;;;;;4862634;29;20211;-72
2022/12/12 22:20:51;;;;;;;13.77;4.73;;;-2.30;99.90;;;;;;4862602;29;20224;-75
2022/12/12 22:23:18;;;;;;;10.77;4.77;;;-2.20;99.90;;;;;;4862672;29;20223;-75
2022/12/12 22:25:44;;;;;;;10.47;6.10;;;-2.30;99.90;;;;;;4862623;29;20250;-75
2022/12/12 22:28:13;;;;;;;16.03;5.37;;;-2.30;99.90;;;;;;4862569;29;20214;-74
2022/12/12 22:30:40;;;;;;;11.27;4.90;;;-2.20;99.90;;;;;;4862649;29;20215;-72
2022/12/12 22:33:07;;;;;;;12.97;5.73;;;-2.30;99.90;;;;;;4862428;29;20211;-72
2022/12/12 22:35:34;;;;;;;11.73;4.90;;;-2.30;99.90;;;;;;4862423;29;20334;-73
2022/12/12 22:38:01;;;;;;;12.90;5.87;;;-2.40;99.90;;;;;;4862907;29;20299;-73
2022/12/12 22:40:28;;;;;;;13.20;5.67;;;-2.50;99.90;;;;;;4862694;29;20212;-72
2022/12/12 22:42:55;;;;;;;8.63;4.23;;;-2.50;99.90;;;;;;4862721;29;20215;-72
2022/12/12 22:45:23;;;;;;;10.70;4.47;;;-2.50;99.90;;;;;;4862348;29;20741;-73
2022/12/12 22:47:50;;;;;;;8.47;4.73;;;-2.50;99.90;;;;;;4862818;29;20222;-74
2022/12/12 22:50:17;;;;;;;10.53;5.20;;;-2.60;99.90;;;;;;4862710;29;20242;-72
2022/12/12 22:52:44;;;;;;;9.23;4.60;;;-2.60;99.90;;;;;;4862897;29;20247;-72
2022/12/12 22:55:11;;;;;;;14.27;4.53;;;-2.60;99.90;;;;;;4862662;29;20228;-73
2022/12/12 22:57:38;;;;;;;12.33;4.87;;;-2.50;99.90;;;;;;4862398;29;20548;-73
2022/12/12 23:00:09;;;;;;;9.27;4.03;;;-2.40;99.90;;;;;;4862262;29;20211;-73
